createdAt,value
2022-11-25T00:03:57.874Z,958.80
2022-11-25T00:09:29.627Z,958.84
2022-11-25T00:15:01.330Z,958.84
2022-11-25T00:20:32.949Z,958.90
2022-11-25T00:26:04.442Z,958.92
2022-11-25T00:31:36.341Z,958.94
2022-11-25T00:37:08.074Z,958.94
2022-11-25T00:42:45.974Z,958.90
2022-11-25T00:48:17.585Z,958.90
2022-11-25T00:53:50.282Z,958.94
2022-11-25T00:59:21.215Z,958.92
2022-11-25T01:10:24.859Z,958.94
2022-11-25T01:15:56.827Z,958.94
2022-11-25T01:21:28.546Z,958.88
2022-11-25T01:27:06.242Z,958.84
2022-11-25T01:32:37.999Z,958.82
2022-11-25T01:38:09.839Z,958.80
2022-11-25T01:43:47.724Z,958.82
2022-11-25T01:49:19.407Z,958.86
2022-11-25T01:54:50.745Z,958.88
2022-11-25T02:00:22.026Z,958.88
2022-11-25T02:05:53.483Z,958.82
2022-11-25T02:11:25.247Z,958.78
2022-11-25T02:16:56.684Z,958.72
2022-11-25T02:22:28.520Z,958.68
2022-11-25T02:28:00.195Z,958.68
2022-11-25T02:33:32.335Z,958.68
2022-11-25T02:39:03.878Z,958.70
2022-11-25T02:44:36.108Z,958.74
2022-11-25T02:50:07.636Z,958.78
2022-11-25T02:55:39.483Z,958.76
2022-11-25T03:01:11.268Z,958.74
2022-11-25T03:06:42.782Z,958.80
2022-11-25T03:12:14.623Z,958.80
2022-11-25T03:17:46.672Z,958.76
2022-11-25T03:23:18.515Z,958.72
2022-11-25T03:28:50.262Z,958.72
2022-11-25T03:34:22.037Z,958.70
2022-11-25T03:39:53.589Z,958.70
2022-11-25T03:45:25.659Z,958.72
2022-11-25T03:50:57.465Z,958.76
2022-11-25T03:56:35.301Z,958.78
2022-11-25T04:02:06.829Z,958.78
2022-11-25T04:07:38.969Z,958.82
2022-11-25T04:13:17.028Z,958.86
2022-11-25T04:18:49.069Z,958.86
2022-11-25T04:24:20.659Z,958.88
2022-11-25T04:29:58.740Z,958.90
2022-11-25T04:35:30.389Z,958.96
2022-11-25T04:41:02.333Z,958.98
2022-11-25T04:46:34.078Z,959.02
2022-11-25T04:52:05.800Z,958.98
2022-11-25T04:57:37.523Z,958.96
2022-11-25T05:08:41.208Z,958.92
2022-11-25T05:14:13.115Z,958.92
2022-11-25T05:19:44.999Z,958.92
2022-11-25T05:25:22.504Z,958.94
2022-11-25T05:30:54.645Z,958.94
2022-11-25T05:36:26.221Z,958.96
2022-11-25T05:41:58.064Z,958.98
2022-11-25T05:47:29.895Z,959.00
2022-11-25T05:53:01.808Z,959.04
2022-11-25T05:58:33.927Z,959.16
2022-11-25T06:04:05.661Z,959.23
2022-11-25T06:09:37.689Z,959.25
2022-11-25T06:15:09.596Z,959.23
2022-11-25T06:20:41.486Z,959.21
2022-11-25T06:26:13.377Z,959.19
2022-11-25T06:31:45.417Z,959.18
2022-11-25T06:37:17.283Z,959.14
2022-11-25T06:42:49.185Z,959.04
2022-11-25T06:48:20.596Z,959.12
2022-11-25T06:53:52.337Z,959.14
2022-11-25T06:59:24.429Z,959.14
2022-11-25T07:04:55.895Z,959.18
2022-11-25T07:10:27.694Z,959.19
2022-11-25T07:15:59.514Z,959.23
2022-11-25T07:21:36.924Z,959.27
2022-11-25T07:27:08.465Z,959.27
2022-11-25T07:34:53.742Z,959.35
2022-11-25T07:40:24.612Z,959.33
2022-11-25T07:45:56.174Z,959.35
2022-11-25T07:51:28.056Z,959.39
2022-11-25T07:56:59.743Z,959.45
2022-11-25T08:08:03.208Z,959.61
2022-11-25T08:13:34.856Z,959.59
2022-11-25T08:19:06.935Z,959.59
2022-11-25T08:24:38.621Z,959.55
2022-11-25T08:30:10.320Z,959.53
2022-11-25T08:35:41.885Z,959.53
2022-11-25T08:41:13.573Z,959.57
2022-11-25T08:46:45.656Z,959.65
2022-11-25T08:52:17.239Z,959.78
2022-11-25T08:57:48.794Z,959.92
2022-11-25T09:03:20.750Z,960.04
2022-11-25T09:08:58.224Z,960.10
2022-11-25T09:14:36.109Z,960.18
2022-11-25T09:20:07.746Z,960.20
2022-11-25T09:25:39.678Z,960.23
2022-11-25T09:31:11.433Z,960.23
2022-11-25T09:36:49.036Z,960.23
2022-11-25T09:47:55.724Z,960.23
2022-11-25T09:53:22.098Z,960.23
2022-11-25T09:58:53.843Z,960.21
2022-11-25T10:04:25.733Z,960.21
2022-11-25T10:09:57.379Z,960.21
2022-11-25T10:12:20.856Z,960.21
2022-11-25T10:17:52.457Z,960.20
2022-11-25T10:23:27.992Z,960.21
2022-11-25T10:28:55.993Z,960.21
2022-11-25T10:34:27.741Z,960.21
2022-11-25T10:39:59.733Z,960.21
2022-11-25T10:45:31.326Z,960.20
2022-11-25T10:51:03.429Z,960.20
2022-11-25T10:56:34.996Z,960.16
2022-11-25T11:02:06.933Z,960.14
2022-11-25T11:07:38.679Z,960.10
2022-11-25T11:13:10.327Z,960.08
2022-11-25T11:18:42.194Z,960.06
2022-11-25T11:24:19.764Z,959.98
2022-11-25T11:29:51.620Z,959.96
2022-11-25T11:35:23.494Z,959.94
2022-11-25T11:40:55.074Z,959.94
2022-11-25T11:46:27.027Z,959.94
2022-11-25T11:51:58.713Z,959.94
2022-11-25T11:57:30.522Z,959.96
2022-11-25T12:03:02.411Z,959.98
2022-11-25T12:08:34.149Z,959.98
2022-11-25T12:14:05.871Z,959.96
2022-11-25T12:19:37.640Z,960.02
2022-11-25T12:25:15.483Z,960.00
2022-11-25T12:30:49.016Z,959.98
2022-11-25T12:36:20.480Z,959.94
2022-11-25T12:47:21.891Z,959.92
2022-11-25T12:52:53.525Z,959.90
2022-11-25T12:58:31.336Z,959.90
2022-11-25T13:04:02.458Z,959.92
2022-11-25T13:09:34.047Z,959.90
2022-11-25T13:15:06.172Z,959.92
2022-11-25T13:20:37.729Z,959.92
2022-11-25T13:26:09.226Z,959.98
2022-11-25T13:31:40.756Z,959.94
2022-11-25T13:42:47.805Z,960.00
2022-11-25T13:48:19.618Z,960.04
2022-11-25T13:53:57.546Z,960.04
2022-11-25T13:59:29.125Z,960.08
2022-11-25T14:05:00.951Z,960.16
2022-11-25T14:10:32.721Z,960.20
2022-11-25T14:16:07.125Z,960.25
2022-11-25T14:21:35.579Z,960.33
2022-11-25T14:27:07.055Z,960.43
2022-11-25T14:32:38.207Z,960.51
2022-11-25T14:38:09.801Z,960.61
2022-11-25T14:43:41.394Z,960.70
2022-11-25T14:49:30.575Z,960.82
2022-11-25T14:54:44.318Z,960.92
2022-11-25T15:00:19.160Z,961.00
2022-11-25T15:05:50.970Z,961.06
2022-11-25T15:11:22.727Z,961.15
2022-11-25T15:16:54.259Z,961.23
2022-11-25T15:22:25.764Z,961.31
2022-11-25T15:27:57.602Z,961.37
2022-11-25T15:33:29.482Z,961.41
2022-11-25T15:39:01.352Z,961.43
2022-11-25T15:44:34.339Z,961.51
2022-11-25T15:50:06.410Z,961.59
2022-11-25T15:55:38.211Z,961.71
2022-11-25T16:01:10.197Z,961.78
2022-11-25T16:06:41.657Z,961.90
2022-11-25T16:12:13.484Z,961.96
2022-11-25T16:17:45.352Z,961.98
2022-11-25T16:23:16.922Z,962.04
2022-11-25T16:28:48.891Z,962.10
2022-11-25T16:34:20.754Z,962.18
2022-11-25T16:39:52.533Z,962.25
2022-11-25T16:45:24.631Z,962.35
2022-11-25T16:50:56.081Z,962.45
2022-11-25T16:56:27.956Z,962.55
2022-11-25T17:02:00.504Z,962.65
2022-11-25T17:07:33.682Z,962.74
2022-11-25T17:13:04.359Z,962.78
2022-11-25T17:18:36.032Z,962.90
2022-11-25T17:24:07.886Z,963.00
2022-11-25T17:29:40.383Z,963.10
2022-11-25T17:35:11.859Z,963.18
2022-11-25T17:40:49.759Z,963.25
2022-11-25T17:48:42.565Z,963.53
2022-11-25T18:05:27.867Z,963.65
2022-11-25T18:11:00.186Z,963.71
2022-11-25T18:16:31.972Z,963.74
2022-11-25T18:27:33.391Z,963.86
2022-11-25T18:38:49.252Z,963.96
2022-11-25T18:44:25.681Z,964.00
2022-11-25T18:49:56.204Z,964.04
2022-11-25T18:55:24.120Z,964.06
2022-11-25T19:03:17.260Z,964.32
2022-11-25T19:08:49.159Z,964.35
2022-11-25T19:14:20.852Z,964.37
2022-11-25T19:19:52.518Z,964.43
2022-11-25T19:25:24.469Z,964.53
2022-11-25T19:31:02.304Z,964.65
2022-11-25T19:36:33.927Z,964.77
2022-11-25T19:42:11.789Z,964.85
2022-11-25T19:47:43.429Z,964.96
2022-11-25T19:53:15.391Z,965.04
2022-11-25T19:58:47.247Z,965.14
2022-11-25T20:04:24.662Z,965.18
2022-11-25T20:09:56.766Z,965.28
2022-11-25T20:15:27.990Z,965.34
2022-11-25T20:20:59.477Z,965.45
2022-11-25T20:26:31.549Z,965.51
2022-11-25T20:32:03.253Z,965.63
2022-11-25T20:37:35.091Z,965.71
2022-11-25T20:43:06.646Z,965.79
2022-11-25T20:48:38.461Z,965.88
2022-11-25T20:56:30.386Z,966.22
2022-11-25T21:02:01.729Z,966.26
2022-11-25T21:07:33.265Z,966.29
2022-11-25T21:13:10.701Z,966.33
2022-11-25T21:18:42.602Z,966.37
2022-11-25T21:29:52.054Z,966.49
2022-11-25T21:35:24.029Z,966.53
2022-11-25T21:40:55.548Z,966.59
2022-11-25T21:46:27.142Z,966.67
2022-11-25T21:51:58.669Z,966.71
2022-11-25T21:57:30.670Z,966.83
2022-11-25T22:03:02.745Z,966.89
2022-11-25T22:08:34.414Z,966.92
2022-11-25T22:19:38.141Z,967.06
2022-11-25T22:25:10.127Z,967.16
2022-11-25T22:30:42.062Z,967.18
2022-11-25T22:36:13.615Z,967.26
2022-11-25T22:41:45.689Z,967.30
2022-11-25T22:47:17.284Z,967.34
2022-11-25T22:52:49.528Z,967.36
2022-11-25T22:58:21.924Z,967.37
2022-11-25T23:03:54.054Z,967.41
2022-11-25T23:09:28.126Z,967.39
2022-11-25T23:14:59.982Z,967.43
2022-11-25T23:20:31.885Z,967.47
2022-11-25T23:26:03.984Z,967.53
2022-11-25T23:31:36.195Z,967.55
2022-11-25T23:37:08.130Z,967.57
2022-11-25T23:42:39.902Z,967.59
2022-11-25T23:48:11.799Z,967.61
2022-11-25T23:53:43.741Z,967.65
2022-11-25T23:59:16.081Z,967.65
